Skip to main content

Zambujeira

ID 1210788 · 37.5820, -8.7429 map

Latest reading · 2026-05-09 17:00 (Europe/Lisbon)

Temperature
18.9 °C
Humidity
74 %
Pressure
Precipitation
0.0 mm
Radiation
2,343 W/m²
Wind speed
25.2 km/h
Wind direction
SW · South-west

24-hour history

Time (Europe/Lisbon) Temp Humidity Pressure Rain Wind Dir
2026-05-09 17:00 18.9 °C 74 % 0.0 mm 25.2 km/h SW
2026-05-09 16:00 19.2 °C 77 % 0.0 mm 22.7 km/h SW
2026-05-09 15:00 19.1 °C 77 % 0.0 mm 28.8 km/h SW
2026-05-09 14:00 18.9 °C 73 % 0.0 mm 29.2 km/h SW
2026-05-09 13:00 18.8 °C 72 % 0.0 mm 25.9 km/h SW
2026-05-09 12:00 18.1 °C 78 % 0.0 mm 23.0 km/h SW
2026-05-09 11:00 17.0 °C 89 % 0.0 mm 22.7 km/h SW
2026-05-09 10:00 15.6 °C 99 % 0.0 mm 19.1 km/h SW
2026-05-09 09:00 14.0 °C 100 % 0.0 mm 11.2 km/h SW
2026-05-09 08:00 12.7 °C 100 % 0.1 mm 2.5 km/h S
2026-05-09 07:00 12.3 °C 100 % 0.1 mm 3.6 km/h SE
2026-05-09 06:00 12.1 °C 100 % 8.5 mm 3.6 km/h SW
2026-05-09 05:00 12.7 °C 100 % 7.2 mm 2.9 km/h NW
2026-05-09 04:00 12.7 °C 100 % 0.0 mm 9.4 km/h SE
2026-05-09 03:00 12.6 °C 100 % 0.0 mm 8.6 km/h SE
2026-05-09 02:00 12.3 °C 100 % 0.0 mm 9.7 km/h SE
2026-05-09 01:00 11.8 °C 100 % 0.0 mm 7.9 km/h SE
2026-05-09 00:00 11.5 °C 100 % 0.0 mm 9.4 km/h SE
2026-05-08 23:00 11.9 °C 100 % 0.0 mm 8.6 km/h SE
2026-05-08 22:00 12.6 °C 100 % 1.4 mm 11.2 km/h SE
2026-05-08 21:00 14.7 °C 93 % 2.6 mm 16.9 km/h S
2026-05-08 20:00 16.6 °C 75 % 0.0 mm 18.4 km/h S